Terminal Aerodrome Forecast
Issued by NWS Mt. Holly, NJ

Home | Current Version | Previous Version | Text Only | Print | Product List | Glossary On
Versions: 1 2 3 4 5 6 7 8 9 10 11 12 13 14 15 16 17 18 19 20 21 22 23 24
000
FTUS41 KPHI 302121 AAB
TAFABE
TAF AMD
KABE 302121Z 3021/0118 VRB03KT P6SM BKN070 BKN110
      TEMPO 3022/0102 4SM TSRA BKN050CB
     FM010300 15003KT 4SM -SHRA BR BKN035 OVC050
     FM011000 23003KT 4SM -SHRA BR BKN035 OVC050
     FM011500 25010KT P6SM SCT050 BKN250=

USA.gov is the U.S. government's official web portal to all federal, state and local government web resources and services.